Latest Weather Observations for Camden

IDN60801

Issued at 9:02 am EDT Monday 23 January 2017 (issued every 30 minutes, with the page automatically refreshed every 10 minutes)

About weather observations | Map of weather stations | Latest weather observations for NSW | Other Formats
Station Details ID: 068192 Name: CAMDEN AIRPORT AWS Lat: -34.04 Lon: 150.69 Height: 73.9 m
Data from the previous 72 hours. | See also: Recent months at Camden
Date/Time
EDT
Temp
°C
App
Temp
°C
Dew
Point
°C
Rel
Hum
%
Delta-T
°C
Wind Press
QNH
hPa
Press
MSL
hPa
Rain since
9am
mm
Dir  Spd
km/h
Gust
km/h
Spd
kts
Gust
kts
23/09:00am 22.6 22.6 17.1 71 3.4 NNW 13 15 7 8 1015.3 1015.0 0.0
23/08:30am 22.0 23.2 16.9 73 3.1 N 6 11 3 6 1014.8 1014.5 0.0
23/08:00am 21.5 22.6 17.1 76 2.7 N 7 9 4 5 1014.8 1014.5 0.0
23/07:30am 21.1 22.4 17.1 78 2.5 NW 6 7 3 4 1014.7 1014.4 0.0
23/07:00am 20.7 23.1 17.1 80 2.2 CALM 0 6 0 3 1014.2 1013.9 0.0
23/06:30am 20.4 22.8 17.0 81 2.1 CALM 0 0 0 0 1014.1 1013.8 0.0
23/06:00am 20.3 22.7 16.9 81 2.1 CALM 0 0 0 0 1013.9 1013.6 0.0
23/05:30am 20.3 22.6 16.7 80 2.2 CALM 0 0 0 0 1013.9 1013.6 0.0
23/05:00am 20.2 22.4 16.6 80 2.2 CALM 0 0 0 0 1013.7 1013.4 0.0
23/04:40am 20.1 22.4 16.7 81 2.1 CALM 0 0 0 0 1013.7 1013.4 0.0
23/04:30am 20.1 22.3 16.5 80 2.2 CALM 0 0 0 0 1013.7 1013.4 0.0
23/04:00am 19.9 22.1 16.5 81 2.1 CALM 0 0 0 0 1013.8 1013.5 0.0
23/03:30am 19.8 22.1 16.8 83 1.8 CALM 0 0 0 0 1013.9 1013.6 0.0
23/03:00am 19.5 21.8 16.7 84 1.7 CALM 0 0 0 0 1014.0 1013.7 0.0
23/02:30am 19.2 21.6 17.0 87 1.3 CALM 0 0 0 0 1014.2 1013.9 0.0
23/02:00am 18.8 21.1 16.8 88 1.2 CALM 0 0 0 0 1014.6 1014.3 0.0
23/01:30am 18.9 20.7 15.6 81 2.0 CALM 0 0 0 0 1014.8 1014.5 0.0
23/01:00am 19.0 21.0 15.9 82 1.8 CALM 0 0 0 0 1015.3 1015.0 0.0
23/12:30am 19.3 21.1 15.6 79 2.2 CALM 0 0 0 0 1015.7 1015.3 0.0
23/12:00am 20.0 21.8 15.4 75 2.7 CALM 0 0 0 0 1015.8 1015.4 0.0
 
Date/Time
EDT
Temp
°C
App
Temp
°C
Dew
Point
°C
Rel
Hum
%
Delta-T
°C
Wind Press
QNH
hPa
Press
MSL
hPa
Rain since
9am
mm
Dir  Spd
km/h
Gust
km/h
Spd
kts
Gust
kts
22/11:30pm 20.4 22.2 15.4 73 3.0 CALM 0 0 0 0 1015.8 1015.4 0.0
22/11:00pm 20.5 22.2 15.1 71 3.2 CALM 0 0 0 0 1015.9 1015.5 0.0
22/10:30pm 21.3 21.9 15.4 69 3.5 N 6 7 3 4 1016.0 1015.6 0.0
22/10:00pm 22.1 22.1 15.2 65 4.1 NNE 9 13 5 7 1015.8 1015.4 0.0
22/09:30pm 22.2 22.2 15.3 65 4.1 NE 9 13 5 7 1015.6 1015.2 0.0
22/09:00pm 22.5 21.3 15.1 63 4.4 NE 15 20 8 11 1015.2 1014.9 0.0
22/08:30pm 23.0 22.2 15.1 61 4.7 ENE 13 20 7 11 1015.1 1014.8 0.0
22/08:00pm 23.7 22.4 14.9 57 5.3 ENE 15 22 8 12 1014.8 1014.5 0.0
22/07:30pm 24.5 22.8 14.6 54 5.9 ENE 17 22 9 12 1014.7 1014.4 0.0
22/07:00pm 25.4 22.2 14.2 50 6.7 NE 24 33 13 18 1014.2 1013.9 0.0
22/06:30pm 26.7 24.5 14.8 48 7.2 ENE 20 28 11 15 1013.9 1013.6 0.0
22/06:00pm 27.3 25.0 14.7 46 7.6 E 20 28 11 15 1013.5 1013.2 0.0
22/05:30pm 27.7 24.7 14.7 45 7.9 ENE 24 32 13 17 1013.5 1013.2 0.0
22/05:00pm 28.1 25.8 14.7 44 8.1 ENE 20 30 11 16 1013.6 1013.3 0.0
22/04:30pm 28.3 25.8 14.2 42 8.5 NE 20 30 11 16 1014.0 1013.7 0.0
22/04:00pm 28.6 26.4 14.4 41 8.6 ENE 19 32 10 17 1014.1 1013.8 0.0
22/03:30pm 29.6 27.3 14.6 40 9.1 NE 20 33 11 18 1014.3 1014.0 0.0
22/03:00pm 27.9 25.9 13.8 42 8.4 NE 17 28 9 15 1014.7 1014.4 0.0
22/02:30pm 28.0 25.2 14.3 43 8.2 NE 22 37 12 20 1015.1 1014.8 0.0
22/02:00pm 27.6 25.2 13.9 43 8.2 NNE 19 26 10 14 1015.3 1015.0 0.0
22/01:30pm 28.0 25.6 14.3 43 8.2 NE 20 30 11 16 1015.7 1015.3 0.0
22/01:00pm 26.9 24.7 13.3 43 8.0 N 17 32 9 17 1016.0 1015.6 0.0
22/12:30pm 26.3 24.0 13.1 44 7.7 N 17 30 9 16 1016.4 1016.0 0.0
22/12:00pm 26.3 24.0 13.1 44 7.7 NE 17 30 9 16 1016.8 1016.4 0.0
22/11:30am 25.9 23.8 13.7 47 7.2 N 17 22 9 12 1017.1 1016.7 0.0
22/11:00am 24.5 22.7 13.4 50 6.5 N 15 24 8 13 1017.3 1016.9 0.0
22/10:30am 24.0 21.8 12.0 47 6.8 N 15 26 8 14 1017.5 1017.1 0.0
22/10:00am 23.4 22.7 12.1 49 6.4 ENE 7 13 4 7 1017.6 1017.2 0.0
22/09:30am 23.0 23.4 12.6 52 6.0 NW 2 9 1 5 1017.8 1017.4 0.0
22/09:00am 21.7 21.3 12.3 55 5.3 NNW 6 11 3 6 1018.1 1017.7 0.0
22/08:30am 21.1 20.7 12.3 57 5.0 NNW 6 9 3 5 1018.1 1017.7 0.0
22/08:00am 21.2 22.0 12.6 58 4.9 CALM 0 0 0 0 1017.9 1017.5 0.0
22/07:30am 20.0 20.8 12.7 63 4.1 CALM 0 0 0 0 1017.9 1017.5 0.0
22/07:00am 18.9 19.9 13.1 69 3.3 CALM 0 0 0 0 1017.7 1017.3 0.0
22/06:30am 18.9 20.0 13.5 71 3.1 CALM 0 0 0 0 1017.5 1017.1 0.0
22/06:00am 18.9 19.9 13.3 70 3.2 CALM 0 0 0 0 1017.4 1017.0 0.0
22/05:30am 19.0 20.0 13.2 69 3.3 CALM 0 0 0 0 1017.3 1016.9 0.0
22/05:00am 19.0 19.9 13.0 68 3.4 CALM 0 0 0 0 1017.1 1016.7 0.0
22/04:30am 19.1 20.0 12.8 67 3.6 CALM 0 0 0 0 1016.9 1016.5 0.0
22/04:00am 19.1 19.9 12.6 66 3.6 CALM 0 6 0 3 1016.7 1016.3 0.0
22/03:30am 19.2 19.7 12.7 66 3.7 SSW 2 7 1 4 1016.9 1016.5 0.0
22/03:00am 19.3 19.4 12.8 66 3.7 SSE 4 7 2 4 1017.0 1016.6 0.0
22/02:30am 19.3 20.2 12.8 66 3.7 CALM 0 6 0 3 1017.2 1016.8 0.0
22/02:00am 19.4 18.5 12.7 65 3.8 SSE 9 15 5 8 1017.2 1016.8 0.0
22/01:30am 19.6 18.7 12.6 64 3.9 S 9 13 5 7 1017.4 1017.0 0.0
22/01:00am 19.6 19.2 13.1 66 3.7 SE 7 11 4 6 1017.5 1017.1 0.0
22/12:30am 19.7 18.9 12.9 65 3.9 SE 9 13 5 7 1017.6 1017.2 0.0
22/12:00am 19.8 19.1 13.3 66 3.7 SE 9 17 5 9 1017.6 1017.2 0.0
 
Date/Time
EDT
Temp
°C
App
Temp
°C
Dew
Point
°C
Rel
Hum
%
Delta-T
°C
Wind Press
QNH
hPa
Press
MSL
hPa
Rain since
9am
mm
Dir  Spd
km/h
Gust
km/h
Spd
kts
Gust
kts
21/11:30pm 19.8 19.1 13.3 66 3.7 SE 9 13 5 7 1017.4 1017.0 0.0
21/11:00pm 19.9 19.2 13.1 65 3.9 SE 9 13 5 7 1017.4 1017.0 0.0
21/10:30pm 20.1 19.1 13.3 65 3.9 SE 11 13 6 7 1017.4 1017.0 0.0
21/10:00pm 20.1 18.7 13.3 65 3.9 SSE 13 17 7 9 1017.1 1016.7 0.0
21/09:30pm 20.2 18.4 13.4 65 3.9 SE 15 20 8 11 1016.9 1016.5 0.0
21/09:00pm 20.3 19.4 13.7 66 3.8 SE 11 17 6 9 1016.6 1016.2 0.0
21/08:30pm 20.5 18.8 13.5 64 4.0 SSE 15 19 8 10 1016.3 1015.9 0.0
21/08:00pm 20.7 18.5 13.4 63 4.2 SE 17 22 9 12 1015.7 1015.3 0.0
21/07:30pm 21.1 19.7 13.3 61 4.5 ESE 13 17 7 9 1014.9 1014.6 0.0
21/07:00pm 21.5 19.3 13.2 59 4.8 ESE 17 24 9 13 1014.1 1013.8 0.0
21/06:30pm 22.3 20.3 12.8 55 5.4 ESE 15 19 8 10 1013.6 1013.3 0.0
21/06:00pm 23.6 21.3 12.9 51 6.2 E 17 26 9 14 1013.0 1012.7 0.0
21/05:30pm 23.8 21.2 12.1 48 6.7 E 17 26 9 14 1012.5 1012.2 0.0
21/05:00pm 25.0 22.7 12.9 47 7.0 ESE 17 28 9 15 1012.2 1011.9 0.0
21/04:30pm 25.7 23.1 13.2 46 7.3 E 19 33 10 18 1012.1 1011.8 0.0
21/04:00pm 26.3 23.5 13.1 44 7.7 E 20 30 11 16 1011.7 1011.4 0.0
21/03:30pm 27.0 24.1 12.3 40 8.5 ESE 19 26 10 14 1011.4 1011.1 0.0
21/03:00pm 27.7 24.8 12.9 40 8.7 ENE 20 26 11 14 1011.1 1010.8 0.0
21/02:30pm 27.7 25.1 12.1 38 9.1 E 17 30 9 16 1010.9 1010.6 0.0
21/02:00pm 27.7 25.4 11.7 37 9.2 E 15 28 8 15 1010.8 1010.5 0.0
21/01:30pm 27.5 26.4 10.7 35 9.5 NNW 7 15 4 8 1010.9 1010.6 0.0
21/01:00pm 27.5 25.5 11.5 37 9.2 ENE 13 20 7 11 1011.1 1010.8 0.0
21/12:30pm 25.8 24.1 11.2 40 8.3 WNW 11 17 6 9 1011.4 1011.1 0.0
21/12:00pm 25.1 23.3 10.9 41 8.0 NNW 11 17 6 9 1011.3 1011.0 0.0
21/11:30am 24.9 24.0 11.5 43 7.6 NW 7 17 4 9 1011.4 1011.1 0.0
21/11:00am 23.6 22.0 10.3 43 7.3 NNE 9 17 5 9 1011.4 1011.1 0.0
21/10:30am 23.6 22.7 10.6 44 7.2 ENE 6 11 3 6 1011.4 1011.1 0.0
21/10:00am 22.6 22.2 11.0 48 6.5 NE 4 11 2 6 1011.3 1011.0 0.0
21/09:30am 21.8 20.3 10.6 49 6.2 ESE 9 13 5 7 1011.1 1010.8 0.0
21/09:00am 21.4 19.6 10.9 51 5.8 S 11 15 6 8 1010.8 1010.5 5.4
21/08:30am 21.3 19.8 10.5 50 5.9 SSW 9 13 5 7 1010.4 1010.1 5.4
21/08:00am 21.1 19.5 10.3 50 5.9 SSE 9 13 5 7 1009.9 1009.6 5.4
21/07:30am 20.5 20.2 11.4 56 5.0 SSE 4 9 2 5 1009.5 1009.2 5.4
21/07:00am 20.1 21.0 12.8 63 4.1 CALM 0 0 0 0 1008.9 1008.6 5.4
21/06:30am 19.8 19.0 11.8 60 4.4 SSE 7 11 4 6 1008.3 1008.0 5.4
21/06:00am 19.8 19.0 11.6 59 4.6 SSE 7 11 4 6 1007.7 1007.4 5.4
21/05:30am 20.0 19.2 11.8 59 4.6 SE 7 11 4 6 1006.9 1006.6 5.4
21/05:00am 20.4 21.2 12.4 60 4.5 CALM 0 0 0 0 1006.3 1005.9 5.4
21/04:30am 20.5 20.5 13.5 64 4.0 WSW 6 7 3 4 1006.3 1005.9 5.4
21/04:00am 20.8 21.7 12.8 60 4.6 CALM 0 0 0 0 1005.9 1005.5 5.4
21/03:30am 20.8 20.8 12.5 59 4.7 ESE 4 9 2 5 1005.6 1005.2 5.4
21/03:00am 20.9 21.0 12.6 59 4.7 SSE 4 9 2 5 1005.2 1004.8 5.4
21/02:30am 20.8 21.8 13.3 62 4.3 CALM 0 0 0 0 1004.9 1004.5 5.4
21/02:00am 21.0 20.8 12.9 60 4.6 SE 6 9 3 5 1004.6 1004.2 5.4
21/01:30am 21.3 19.8 13.2 60 4.7 SSE 13 19 7 10 1004.2 1003.8 5.4
21/01:00am 21.8 23.4 15.9 69 3.6 SSE 2 17 1 9 1003.8 1003.4 5.4
21/12:30am 21.9 23.2 16.2 70 3.5 S 4 7 2 4 1003.3 1002.9 5.4
21/12:00am 21.6 22.0 16.3 72 3.2 S 9 13 5 7 1002.7 1002.3 5.4
 
Date/Time
EDT
Temp
°C
App
Temp
°C
Dew
Point
°C
Rel
Hum
%
Delta-T
°C
Wind Press
QNH
hPa
Press
MSL
hPa
Rain since
9am
mm
Dir  Spd
km/h
Gust
km/h
Spd
kts
Gust
kts
20/11:30pm 21.3 21.9 16.7 75 2.8 SSE 9 17 5 9 1002.1 1001.7 5.4
20/11:00pm 21.6 20.8 17.2 76 2.7 SSE 17 22 9 12 1001.5 1001.1 5.4
20/10:30pm 21.8 20.1 17.2 75 2.8 SSE 22 32 12 17 1000.8 1000.5 5.4
20/10:00pm 22.6 21.7 18.2 76 2.8 SSE 20 35 11 19 999.6 999.3 5.4
20/09:30pm 25.3 24.5 18.0 64 4.6 SW 19 28 10 15 998.7 998.4 5.4
20/09:00pm 25.2 25.2 18.9 68 4.1 WSW 17 24 9 13 997.1 996.8 5.4
20/08:30pm 25.9 28.1 21.8 78 2.7 W 13 26 7 14 996.0 995.7 5.4
20/08:00pm 26.5 30.7 23.2 82 2.3 W 6 11 3 6 995.5 995.2 5.4
20/07:30pm 26.5 30.8 24.2 87 1.6 NW 9 11 5 6 995.1 994.8 5.4
20/07:00pm 25.9 29.7 24.1 90 1.2 WNW 11 15 6 8 994.8 994.4 5.4
20/06:56pm 25.9 30.0 23.9 89 1.4 W 9 15 5 8 994.8 994.4 5.4
20/06:46pm 25.5 28.3 23.0 86 1.7 SW 13 19 7 10 994.7 994.3 5.2
20/06:39pm 25.9 28.4 22.4 81 2.4 SW 13 19 7 10 994.9 994.5 4.2
20/06:30pm 27.8 31.4 22.3 72 3.7 SW 7 11 4 6 994.1 993.7 2.6
20/06:00pm 27.9 29.6 22.4 72 3.8 N 17 20 9 11 993.0 992.6 2.6
20/05:30pm 29.5 32.4 21.7 63 5.3 NNE 9 13 5 7 992.5 992.1 2.6
20/05:00pm 29.2 33.0 21.7 64 5.1 NNW 4 7 2 4 993.0 992.6 2.6
20/04:30pm 27.8 30.7 21.1 67 4.5 WNW 7 9 4 5 993.3 992.9 2.6
20/04:00pm 27.8 31.0 21.3 67 4.4 NNW 6 11 3 6 993.4 993.0 2.6
20/03:30pm 27.9 29.6 21.0 66 4.6 N 13 20 7 11 993.7 993.3 2.6
20/03:00pm 27.8 29.7 20.6 65 4.8 NNW 11 19 6 10 994.5 994.1 2.6
20/02:30pm 25.0 27.9 20.7 77 2.8 WSW 6 9 3 5 995.4 995.1 2.6
20/02:06pm 25.2 28.0 20.5 75 3.1 WNW 6 11 3 6 995.6 995.3 2.6
20/02:00pm 24.6 27.1 19.9 75 3.1 NW 6 11 3 6 995.5 995.2 2.6
20/01:31pm 23.9 26.6 20.2 80 2.4 NNE 6 13 3 7 996.0 995.7 2.6
20/01:30pm 23.5 25.8 19.4 78 2.6 NNE 6 13 3 7 996.0 995.7 2.6
20/01:00pm 22.9 24.7 19.5 81 2.2 N 9 13 5 7 996.6 996.3 2.6
20/12:30pm 21.1 22.3 18.3 84 1.7 N 9 13 5 7 997.8 997.5 2.6
20/12:00pm 20.7 22.3 17.9 84 1.7 NNW 6 9 3 5 998.5 998.2 2.6
20/11:56am 20.5 22.0 17.7 84 1.7 NNW 6 9 3 5 998.5 998.2 2.6
20/11:30am 20.5 23.0 17.3 82 2.0 CALM 0 6 0 3 999.0 998.7 1.4
20/11:23am 20.7 23.5 17.9 84 1.7 CALM 0 4 0 2 998.9 998.6 1.0
20/11:00am 21.1 21.5 17.3 79 2.3 NW 11 15 6 8 1000.0 999.7 0.2
20/10:30am 22.1 21.8 16.4 70 3.5 N 13 17 7 9 998.8 998.5 0.0
20/10:00am 21.9 21.3 15.7 68 3.7 N 13 19 7 10 999.5 999.2 0.0
20/09:30am 21.7 20.1 16.0 70 3.4 N 19 24 10 13 1000.2 999.9 0.0

Other Formats:

Comma delimited format used in spreadsheet applications
http://www.bom.gov.au/fwo/IDN60801/IDN60801.94755.axf

JavaScript Object Notation format (JSON) in row-major order
http://www.bom.gov.au/fwo/IDN60801/IDN60801.94755.json